Terminal Aerodrome Forecast
Issued by NWS Missoula, MT

Home | Current Version | Previous Version | Text Only | Print | Product List | Glossary On
Versions: 1 2 3 4 5 6 7 8 9 10 11 12 13 14 15 16 17 18 19 20 21
000
FTUS45 KMSO 271720
TAFGPI
TAF
KGPI 271720Z 2718/2818 22004KT P6SM VCSH OVC040
     FM280000 19005KT P6SM VCSH OVC050
     FM280400 19005KT 6SM -SHSNRA BR BKN035 OVC050=

USA.gov is the U.S. government's official web portal to all federal, state and local government web resources and services.